createdAt,value
2023-02-11T00:01:30.154Z,6.45
2023-02-11T00:03:58.447Z,6.72
2023-02-11T00:06:28.114Z,5.80
2023-02-11T00:08:55.850Z,6.27
2023-02-11T00:11:26.511Z,7.32
2023-02-11T00:13:53.594Z,5.60
2023-02-11T00:16:21.820Z,6.55
2023-02-11T00:18:50.405Z,7.53
2023-02-11T00:21:20.326Z,5.80
2023-02-11T00:23:48.229Z,7.65
2023-02-11T00:26:21.389Z,5.68
2023-02-11T00:28:50.343Z,6.38
2023-02-11T00:31:19.020Z,6.90
2023-02-11T00:33:46.064Z,5.95
2023-02-11T00:36:18.665Z,5.63
2023-02-11T00:38:47.230Z,6.35
2023-02-11T00:41:14.922Z,6.18
2023-02-11T00:43:41.891Z,5.47
2023-02-11T00:46:08.951Z,6.07
2023-02-11T00:48:36.127Z,5.72
2023-02-11T00:51:04.402Z,5.85
2023-02-11T00:53:31.744Z,6.60
2023-02-11T00:55:58.445Z,6.80
2023-02-11T00:58:25.399Z,6.57
2023-02-11T01:00:53.444Z,5.90
2023-02-11T01:03:20.165Z,7.07
2023-02-11T01:05:46.949Z,6.78
2023-02-11T01:08:13.884Z,7.00
2023-02-11T01:10:40.753Z,5.88
2023-02-11T01:13:07.734Z,6.55
2023-02-11T01:15:34.597Z,6.40
2023-02-11T01:18:01.614Z,7.45
2023-02-11T01:20:29.798Z,6.50
2023-02-11T01:22:56.535Z,7.80
2023-02-11T01:25:23.285Z,6.72
2023-02-11T01:27:50.065Z,6.72
2023-02-11T01:30:16.878Z,6.90
2023-02-11T01:32:43.605Z,8.02
2023-02-11T01:35:10.482Z,6.70
2023-02-11T01:37:37.124Z,6.78
2023-02-11T01:40:06.304Z,7.70
2023-02-11T01:42:33.170Z,6.20
2023-02-11T01:45:01.924Z,7.28
2023-02-11T01:47:28.565Z,7.00
2023-02-11T01:50:01.985Z,6.38
2023-02-11T01:52:40.688Z,6.72
2023-02-11T01:55:31.562Z,7.30
2023-02-11T01:58:03.926Z,8.23
2023-02-11T02:00:33.502Z,8.20
2023-02-11T02:03:11.523Z,7.25
2023-02-11T02:05:49.153Z,7.80
2023-02-11T02:08:36.428Z,7.20
2023-02-11T02:11:03.954Z,8.27
2023-02-11T02:13:33.605Z,7.40
2023-02-11T02:16:09.322Z,8.50
2023-02-11T02:19:14.465Z,7.70
2023-02-11T02:21:50.093Z,8.52
2023-02-11T02:24:57.849Z,8.57
2023-02-11T02:28:00.881Z,8.43
2023-02-11T02:30:42.885Z,7.80
2023-02-11T02:33:40.928Z,9.02
2023-02-11T02:36:43.062Z,9.43
2023-02-11T02:39:21.396Z,9.32
2023-02-11T02:41:50.978Z,10.25
2023-02-11T02:44:18.947Z,9.00
2023-02-11T02:46:46.138Z,10.48
2023-02-11T02:49:14.991Z,9.82
2023-02-11T02:52:15.879Z,10.10
2023-02-11T02:54:56.540Z,9.18
2023-02-11T02:57:33.544Z,10.43
2023-02-11T03:00:32.849Z,11.00
2023-02-11T03:03:31.309Z,10.32
2023-02-11T03:06:17.750Z,10.73
2023-02-11T03:08:52.237Z,10.85
2023-02-11T03:11:20.376Z,11.50
2023-02-11T03:13:49.571Z,11.02
2023-02-11T03:16:25.053Z,12.65
2023-02-11T03:19:05.819Z,12.40
2023-02-11T03:21:36.157Z,12.13
2023-02-11T03:24:07.801Z,11.60
2023-02-11T03:26:49.842Z,11.98
2023-02-11T03:29:43.291Z,12.40
2023-02-11T03:32:20.082Z,12.80
2023-02-11T03:34:57.639Z,13.48
2023-02-11T03:37:33.452Z,12.77
2023-02-11T03:40:08.221Z,12.50
2023-02-11T03:42:42.760Z,13.60
2023-02-11T03:45:14.442Z,13.38
2023-02-11T03:47:47.635Z,13.68
2023-02-11T03:50:16.628Z,14.35
2023-02-11T03:52:45.315Z,13.63
2023-02-11T03:55:16.203Z,14.27
2023-02-11T03:57:43.124Z,14.05
2023-02-11T04:00:11.257Z,13.70
2023-02-11T04:02:39.536Z,14.15
2023-02-11T04:05:08.051Z,14.40
2023-02-11T04:07:34.994Z,15.10
2023-02-11T04:10:01.831Z,15.00
2023-02-11T04:12:28.662Z,14.93
2023-02-11T04:14:55.316Z,14.25
2023-02-11T04:17:22.147Z,15.18
2023-02-11T04:19:48.825Z,14.85
2023-02-11T04:22:15.644Z,15.50
2023-02-11T04:24:44.121Z,15.38
2023-02-11T04:27:11.009Z,15.27
2023-02-11T04:29:37.904Z,14.77
2023-02-11T04:32:04.862Z,15.30
2023-02-11T04:34:32.237Z,16.63
2023-02-11T04:36:58.845Z,16.00
2023-02-11T04:39:25.651Z,14.65
2023-02-11T04:41:52.488Z,15.52
2023-02-11T04:44:19.202Z,15.52
2023-02-11T04:46:46.100Z,14.88
2023-02-11T04:49:14.629Z,15.18
2023-02-11T04:51:41.415Z,15.65
2023-02-11T04:54:08.526Z,15.13
2023-02-11T04:56:35.227Z,14.90
2023-02-11T04:59:02.886Z,14.68
2023-02-11T05:01:29.955Z,15.05
2023-02-11T05:03:56.905Z,15.93
2023-02-11T05:06:23.892Z,14.10
2023-02-11T05:08:50.643Z,15.68
2023-02-11T05:11:23.615Z,15.52
2023-02-11T05:13:50.507Z,14.75
2023-02-11T05:16:19.121Z,15.40
2023-02-11T05:18:45.814Z,15.65
2023-02-11T05:21:15.148Z,16.77
2023-02-11T05:23:42.728Z,15.38
2023-02-11T05:26:10.240Z,14.80
2023-02-11T05:28:37.220Z,15.75
2023-02-11T05:31:05.019Z,15.40
2023-02-11T05:33:32.233Z,15.18
2023-02-11T05:36:08.628Z,14.88
2023-02-11T05:38:35.938Z,15.23
2023-02-11T05:41:03.286Z,15.10
2023-02-11T05:43:30.263Z,16.05
2023-02-11T05:45:57.329Z,16.52
2023-02-11T05:48:24.135Z,15.80
2023-02-11T05:50:50.897Z,15.23
2023-02-11T05:53:17.679Z,15.20
2023-02-11T05:55:44.663Z,15.45
2023-02-11T05:58:11.666Z,15.60
2023-02-11T06:00:38.505Z,15.80
2023-02-11T06:03:05.734Z,15.63
2023-02-11T06:05:32.701Z,16.60
2023-02-11T06:07:59.841Z,16.23
2023-02-11T06:10:27.029Z,16.02
2023-02-11T06:12:53.854Z,16.83
2023-02-11T06:15:20.603Z,15.70
2023-02-11T06:17:47.349Z,15.68
2023-02-11T06:20:14.316Z,15.85
2023-02-11T06:22:40.953Z,17.13
2023-02-11T06:25:07.903Z,15.98
2023-02-11T07:17:05.681Z,16.30
2023-02-11T07:19:32.926Z,16.90
2023-02-11T07:21:59.727Z,17.00
2023-02-11T07:24:26.476Z,16.73
2023-02-11T07:26:54.178Z,17.80
2023-02-11T07:29:20.825Z,18.25
2023-02-11T07:31:47.756Z,17.20
2023-02-11T07:34:14.633Z,18.80
2023-02-11T07:36:43.721Z,17.60
2023-02-11T07:39:10.817Z,18.50
2023-02-11T07:41:38.302Z,17.33
2023-02-11T07:44:05.267Z,17.98
2023-02-11T07:46:32.474Z,17.80
2023-02-11T07:48:59.306Z,16.88
2023-02-11T07:51:30.962Z,18.02
2023-02-11T07:53:59.985Z,16.90
2023-02-11T07:56:27.500Z,18.60
2023-02-11T07:58:55.464Z,16.77
2023-02-11T08:01:28.427Z,18.15
2023-02-11T08:03:59.919Z,16.95
2023-02-11T08:06:29.482Z,17.70
2023-02-11T08:08:56.324Z,17.90
2023-02-11T08:11:26.354Z,17.92
2023-02-11T08:13:55.476Z,17.85
2023-02-11T08:16:25.124Z,18.35
2023-02-11T08:18:53.637Z,17.17
2023-02-11T08:21:21.042Z,17.27
2023-02-11T08:23:49.475Z,19.27
2023-02-11T08:26:21.536Z,18.48
2023-02-11T08:28:49.918Z,17.85
2023-02-11T08:31:23.274Z,16.17
2023-02-11T08:33:49.997Z,17.00
2023-02-11T08:36:20.207Z,17.25
2023-02-11T08:38:47.880Z,16.17
2023-02-11T08:41:15.760Z,15.85
2023-02-11T08:43:43.447Z,16.92
2023-02-11T08:46:14.350Z,16.40
2023-02-11T08:48:41.174Z,15.90
2023-02-11T08:51:10.435Z,16.73
2023-02-11T08:53:37.604Z,15.70
2023-02-11T08:56:05.422Z,14.65
2023-02-11T08:58:32.530Z,16.15
2023-02-11T09:00:59.485Z,15.15
2023-02-11T09:03:26.641Z,15.27
2023-02-11T09:05:53.956Z,15.65
2023-02-11T09:08:21.440Z,15.18
2023-02-11T09:10:48.905Z,15.57
2023-02-11T09:13:16.931Z,14.48
2023-02-11T09:15:47.058Z,15.38
2023-02-11T09:18:14.167Z,14.50
2023-02-11T09:20:41.043Z,14.48
2023-02-11T09:23:07.934Z,15.32
2023-02-11T09:25:34.688Z,14.38
2023-02-11T09:28:01.488Z,14.57
2023-02-11T09:30:28.874Z,13.27
2023-02-11T09:32:55.738Z,15.15
2023-02-11T09:35:22.525Z,13.80
2023-02-11T09:37:49.500Z,13.60
2023-02-11T09:40:16.903Z,13.10
2023-02-11T09:42:46.810Z,12.70
2023-02-11T09:45:26.663Z,13.60
2023-02-11T09:48:00.629Z,13.55
2023-02-11T09:50:35.169Z,13.10
2023-02-11T09:53:06.789Z,12.63
2023-02-11T09:55:39.579Z,11.93
2023-02-11T09:58:16.456Z,12.95
2023-02-11T10:00:48.942Z,12.30
2023-02-11T10:03:21.425Z,11.80
2023-02-11T10:06:16.327Z,11.75
2023-02-11T10:09:08.784Z,11.65
2023-02-11T10:11:35.761Z,11.25
2023-02-11T10:14:19.132Z,10.73
2023-02-11T10:16:56.417Z,11.52
2023-02-11T10:19:46.258Z,10.93
2023-02-11T10:22:34.366Z,10.50
2023-02-11T10:25:17.803Z,9.93
2023-02-11T10:27:45.218Z,9.32
2023-02-11T10:30:37.623Z,10.40
2023-02-11T10:33:15.627Z,10.20
2023-02-11T10:35:44.002Z,9.75
2023-02-11T10:38:11.964Z,9.70
2023-02-11T10:40:38.976Z,9.60
2023-02-11T10:43:12.250Z,8.80
2023-02-11T10:45:46.431Z,10.25
2023-02-11T10:48:38.614Z,9.50
2023-02-11T10:51:09.229Z,9.52
2023-02-11T10:56:06.197Z,8.65
2023-02-11T10:58:46.551Z,8.43
2023-02-11T11:01:23.964Z,8.68
2023-02-11T11:03:53.210Z,8.25
2023-02-11T11:06:33.694Z,8.15
2023-02-11T11:09:01.315Z,7.95
2023-02-11T11:11:28.430Z,7.60
2023-02-11T11:13:58.329Z,6.90
2023-02-11T11:16:32.561Z,7.10
2023-02-11T11:19:08.575Z,6.63
2023-02-11T11:21:47.744Z,6.78
2023-02-11T11:24:26.874Z,6.65
2023-02-11T11:26:59.631Z,6.20
2023-02-11T11:29:47.111Z,6.43
2023-02-11T11:32:22.350Z,6.47
2023-02-11T11:34:54.048Z,6.35
2023-02-11T11:37:28.838Z,6.15
2023-02-11T11:40:08.872Z,5.22
2023-02-11T11:42:38.136Z,6.25
2023-02-11T11:45:26.572Z,5.38
2023-02-11T11:47:58.480Z,4.90
2023-02-11T11:50:33.340Z,5.28
2023-02-11T11:53:05.391Z,4.90
2023-02-11T11:56:02.224Z,4.85
2023-02-11T11:58:31.630Z,4.95
2023-02-11T12:01:16.864Z,4.80
2023-02-11T12:04:17.936Z,5.13
2023-02-11T12:07:06.449Z,4.47
2023-02-11T12:09:45.106Z,4.90
2023-02-11T12:12:23.706Z,4.40
2023-02-11T12:15:17.766Z,4.75
2023-02-11T12:18:06.112Z,4.78
2023-02-11T12:20:51.725Z,4.00
2023-02-11T12:23:49.670Z,5.43
2023-02-11T12:26:22.624Z,4.93
2023-02-11T12:28:55.333Z,4.82
2023-02-11T12:31:35.753Z,6.35
2023-02-11T12:34:28.725Z,5.63
2023-02-11T12:37:07.539Z,5.70
2023-02-11T12:39:45.561Z,5.10
2023-02-11T12:42:49.748Z,4.75
2023-02-11T12:45:22.909Z,4.68
2023-02-11T12:48:13.230Z,4.80
2023-02-11T12:51:05.209Z,4.53
2023-02-11T12:53:50.003Z,3.88
2023-02-11T12:56:16.687Z,4.13
2023-02-11T12:58:46.862Z,4.40
2023-02-11T13:01:23.672Z,4.25
2023-02-11T13:03:57.072Z,3.30
2023-02-11T13:06:37.366Z,4.68
2023-02-11T13:09:10.081Z,3.60
2023-02-11T13:11:52.185Z,3.53
2023-02-11T13:14:31.523Z,3.80
2023-02-11T13:16:59.354Z,3.38
2023-02-11T13:19:29.151Z,4.50
2023-02-11T13:22:20.481Z,3.58
2023-02-11T13:25:03.902Z,3.85
2023-02-11T13:27:51.381Z,4.20
2023-02-11T13:30:41.046Z,4.57
2023-02-11T13:33:21.440Z,3.78
2023-02-11T13:36:09.719Z,3.15
2023-02-11T13:38:37.707Z,4.50
2023-02-11T13:41:18.176Z,3.05
2023-02-11T13:43:56.781Z,4.10
2023-02-11T13:46:23.860Z,3.67
2023-02-11T13:48:53.117Z,3.42
2023-02-11T13:51:42.290Z,3.90
2023-02-11T13:54:19.842Z,3.65
2023-02-11T13:57:15.596Z,3.55
2023-02-11T13:59:42.217Z,3.80
2023-02-11T14:02:51.044Z,4.03
2023-02-11T14:05:49.236Z,3.65
2023-02-11T14:08:43.067Z,3.97
2023-02-11T14:11:21.845Z,4.95
2023-02-11T14:13:48.702Z,4.32
2023-02-11T14:16:36.759Z,4.35
2023-02-11T14:19:06.562Z,4.45
2023-02-11T14:21:37.377Z,3.63
2023-02-11T14:26:52.589Z,3.53
2023-02-11T14:29:31.579Z,3.97
2023-02-11T14:32:18.825Z,3.70
2023-02-11T14:34:54.388Z,3.47
2023-02-11T14:37:40.148Z,3.40
2023-02-11T14:40:29.426Z,3.55
2023-02-11T14:43:00.793Z,3.55
2023-02-11T14:45:29.234Z,3.95
2023-02-11T14:48:19.117Z,3.28
2023-02-11T14:50:50.530Z,3.40
2023-02-11T14:53:21.491Z,3.70
2023-02-11T14:55:53.941Z,4.32
2023-02-11T14:58:30.077Z,3.67
2023-02-11T15:01:02.763Z,3.00
2023-02-11T15:03:41.249Z,3.83
2023-02-11T15:06:18.458Z,4.20
2023-02-11T15:08:49.243Z,3.45
2023-02-11T15:11:19.813Z,4.07
2023-02-11T15:16:21.042Z,3.67
2023-02-11T15:18:58.132Z,3.70
2023-02-11T15:21:30.053Z,3.70
2023-02-11T15:24:23.960Z,3.22
2023-02-11T15:27:12.936Z,3.90
2023-02-11T15:29:42.907Z,7.38
2023-02-11T15:32:09.649Z,10.70
2023-02-11T15:34:37.387Z,4.15
2023-02-11T15:37:04.678Z,4.45
2023-02-11T15:39:36.820Z,8.23
2023-02-11T15:42:24.808Z,4.38
2023-02-11T15:45:11.874Z,4.25
2023-02-11T15:47:40.715Z,4.95
2023-02-11T15:50:19.468Z,9.98
2023-02-11T15:52:48.186Z,8.32
2023-02-11T15:55:17.009Z,3.90
2023-02-11T15:57:49.319Z,4.03
2023-02-11T16:00:21.588Z,4.22
2023-02-11T16:02:51.012Z,4.07
2023-02-11T16:05:36.558Z,4.20
2023-02-11T16:08:24.778Z,3.85
2023-02-11T16:11:32.114Z,4.38
2023-02-11T16:14:00.892Z,4.28
2023-02-11T16:16:31.186Z,3.50
2023-02-11T16:19:06.065Z,4.00
2023-02-11T16:21:42.561Z,11.23
2023-02-11T16:24:38.411Z,7.78
2023-02-11T16:27:22.261Z,4.03
2023-02-11T16:29:50.747Z,7.05
2023-02-11T16:32:20.498Z,3.80
2023-02-11T16:34:47.700Z,5.13
2023-02-11T16:37:14.866Z,4.70
2023-02-11T16:39:42.046Z,4.63
2023-02-11T16:42:12.628Z,3.88
2023-02-11T16:47:24.250Z,3.70
2023-02-11T16:49:51.304Z,4.70
2023-02-11T16:52:18.823Z,4.18
2023-02-11T16:54:45.717Z,3.20
2023-02-11T16:57:16.850Z,3.35
2023-02-11T16:59:44.085Z,4.13
2023-02-11T17:02:16.969Z,4.75
2023-02-11T17:04:44.230Z,3.83
2023-02-11T17:07:11.171Z,4.28
2023-02-11T17:09:38.011Z,3.67
2023-02-11T17:12:05.049Z,3.67
2023-02-11T17:14:32.022Z,3.80
2023-02-11T17:16:58.831Z,4.10
2023-02-11T17:19:25.946Z,4.18
2023-02-11T17:21:52.838Z,3.85
2023-02-11T17:24:21.500Z,4.25
2023-02-11T17:26:49.468Z,4.07
2023-02-11T17:29:21.436Z,3.85
2023-02-11T17:31:48.365Z,4.20
2023-02-11T17:34:16.469Z,4.15
2023-02-11T17:36:43.482Z,4.75
2023-02-11T17:39:10.586Z,4.30
2023-02-11T17:41:38.923Z,4.43
2023-02-11T17:44:06.257Z,3.80
2023-02-11T17:46:34.918Z,4.40
2023-02-11T17:49:02.861Z,3.70
2023-02-11T17:51:33.034Z,3.67
2023-02-11T17:54:05.969Z,4.53
2023-02-11T17:56:34.002Z,3.55
2023-02-11T17:59:02.504Z,4.50
2023-02-11T18:01:31.579Z,4.28
2023-02-11T18:03:58.424Z,3.90
2023-02-11T18:06:25.604Z,4.47
2023-02-11T18:08:52.612Z,3.67
2023-02-11T18:11:21.548Z,3.92
2023-02-11T18:13:54.579Z,4.35
2023-02-11T18:16:23.131Z,4.75
2023-02-11T18:18:50.382Z,5.22
2023-02-11T18:21:20.081Z,4.28
2023-02-11T18:23:47.373Z,6.23
2023-02-11T18:26:16.781Z,4.95
2023-02-11T18:28:45.944Z,5.35
2023-02-11T18:31:14.539Z,4.70
2023-02-11T18:33:42.369Z,5.03
2023-02-11T18:36:12.618Z,5.18
2023-02-11T18:38:40.091Z,4.90
2023-02-11T18:41:07.547Z,4.63
2023-02-11T18:43:37.547Z,4.70
2023-02-11T18:46:09.939Z,4.68
2023-02-11T18:48:37.610Z,4.63
2023-02-11T18:51:15.299Z,4.97
2023-02-11T18:53:43.422Z,4.85
2023-02-11T18:56:20.624Z,4.55
2023-02-11T18:58:48.970Z,4.43
2023-02-11T19:01:25.843Z,4.60
2023-02-11T19:03:54.095Z,4.25
2023-02-11T19:06:27.529Z,4.78
2023-02-11T19:08:59.010Z,4.45
2023-02-11T19:11:46.846Z,4.03
2023-02-11T19:14:20.931Z,4.63
2023-02-11T19:16:50.212Z,4.32
2023-02-11T19:19:17.933Z,4.70
2023-02-11T19:21:46.294Z,4.70
2023-02-11T19:24:20.197Z,5.10
2023-02-11T19:26:49.450Z,4.35
2023-02-11T19:29:16.477Z,4.60
2023-02-11T19:31:44.232Z,5.68
2023-02-11T19:34:14.102Z,4.40
2023-02-11T19:36:41.560Z,3.60
2023-02-11T19:39:09.186Z,4.38
2023-02-11T19:41:36.786Z,4.32
2023-02-11T19:44:04.941Z,4.35
2023-02-11T19:46:36.111Z,4.13
2023-02-11T19:49:04.199Z,4.40
2023-02-11T19:51:33.922Z,5.57
2023-02-11T19:54:01.018Z,4.73
2023-02-11T19:56:28.689Z,4.97
2023-02-11T19:58:55.767Z,5.22
2023-02-11T20:01:25.105Z,5.03
2023-02-11T20:03:57.266Z,4.57
2023-02-11T20:06:29.961Z,5.75
2023-02-11T20:09:03.037Z,4.70
2023-02-11T20:11:31.758Z,4.32
2023-02-11T20:13:59.337Z,4.25
2023-02-11T20:16:46.278Z,3.95
2023-02-11T20:19:18.337Z,5.05
2023-02-11T20:21:47.779Z,4.15
2023-02-11T20:24:16.409Z,4.10
2023-02-11T20:26:43.759Z,4.45
2023-02-11T20:29:10.492Z,4.22
2023-02-11T20:31:37.943Z,4.47
2023-02-11T20:34:05.139Z,4.25
2023-02-11T20:36:35.593Z,4.03
2023-02-11T20:41:34.553Z,5.03
2023-02-11T20:44:04.513Z,4.25
2023-02-11T20:46:33.166Z,4.53
2023-02-11T20:49:01.501Z,4.85
2023-02-11T20:51:35.356Z,4.80
2023-02-11T20:54:02.644Z,6.47
2023-02-11T20:56:32.798Z,5.75
2023-02-11T20:59:02.179Z,5.10
2023-02-11T21:01:33.353Z,5.80
2023-02-11T21:04:06.338Z,6.13
2023-02-11T21:06:36.864Z,5.95
2023-02-11T21:11:31.729Z,6.05
2023-02-11T21:13:58.934Z,5.75
2023-02-11T21:16:25.990Z,6.43
2023-02-11T21:18:52.834Z,5.60
2023-02-11T21:21:20.159Z,7.53
2023-02-11T21:23:47.404Z,5.88
2023-02-11T21:26:15.729Z,7.05
2023-02-11T21:28:42.875Z,9.23
2023-02-11T21:31:10.224Z,7.20
2023-02-11T21:33:37.021Z,7.18
2023-02-11T21:36:04.942Z,7.70
2023-02-11T21:38:32.758Z,7.70
2023-02-11T21:41:04.445Z,6.25
2023-02-11T21:43:31.993Z,5.97
2023-02-11T21:45:59.216Z,6.30
2023-02-11T21:48:26.748Z,5.68
2023-02-11T21:50:54.200Z,5.70
2023-02-11T21:53:21.094Z,5.90
2023-02-11T21:55:47.853Z,5.88
2023-02-11T21:58:14.939Z,5.78
2023-02-11T22:00:41.747Z,6.38
2023-02-11T22:03:08.602Z,5.63
2023-02-11T22:05:35.451Z,6.30
2023-02-11T22:08:02.195Z,5.70
2023-02-11T22:10:28.889Z,5.70
2023-02-11T22:12:55.857Z,5.72
2023-02-11T22:15:22.784Z,6.00
2023-02-11T22:17:49.632Z,5.80
2023-02-11T22:20:17.018Z,6.13
2023-02-11T22:22:43.833Z,5.80
2023-02-11T22:25:10.552Z,5.65
2023-02-11T22:27:37.638Z,5.95
2023-02-11T22:30:04.884Z,6.20
2023-02-11T22:32:31.716Z,6.03
2023-02-11T22:34:58.461Z,6.30
2023-02-11T22:37:25.401Z,5.93
2023-02-11T22:39:52.028Z,6.00
2023-02-11T22:42:18.923Z,6.03
2023-02-11T22:44:45.962Z,7.25
2023-02-11T22:47:13.222Z,7.13
2023-02-11T22:49:41.530Z,7.78
2023-02-11T22:52:08.425Z,7.10
2023-02-11T22:54:36.377Z,6.50
2023-02-11T22:57:03.317Z,6.88
2023-02-11T22:59:30.237Z,6.68
2023-02-11T23:01:56.986Z,6.72
2023-02-11T23:04:23.740Z,7.45
2023-02-11T23:06:50.517Z,7.40
2023-02-11T23:09:17.309Z,7.10
2023-02-11T23:11:44.357Z,6.50
2023-02-11T23:14:12.306Z,7.38
2023-02-11T23:16:39.452Z,8.35
2023-02-11T23:19:09.397Z,7.65
2023-02-11T23:21:38.492Z,8.05
2023-02-11T23:24:09.040Z,8.73
2023-02-11T23:29:04.268Z,7.25
2023-02-11T23:31:34.763Z,8.05
2023-02-11T23:36:29.097Z,7.75
2023-02-11T23:38:55.870Z,8.15
2023-02-11T23:41:23.811Z,8.85
2023-02-11T23:43:55.035Z,8.75
2023-02-11T23:46:23.440Z,9.57
2023-02-11T23:48:51.414Z,8.45
2023-02-11T23:51:19.360Z,9.38
2023-02-11T23:53:46.552Z,8.85
2023-02-11T23:56:17.172Z,8.52
2023-02-11T23:58:44.847Z,8.75
